sensor_id;sensor_type;location;lat;lon;timestamp;P1;durP1;ratioP1;P2;durP2;ratioP2
4577;SDS011;2301;47.354;8.528;2023-04-07T00:01:50;4.70;;;2.30;;
4577;SDS011;2301;47.354;8.528;2023-04-07T00:04:17;3.03;;;2.03;;
4577;SDS011;2301;47.354;8.528;2023-04-07T00:06:46;5.43;;;2.80;;
4577;SDS011;2301;47.354;8.528;2023-04-07T00:09:13;3.87;;;2.00;;
4577;SDS011;2301;47.354;8.528;2023-04-07T00:11:40;3.23;;;2.10;;
4577;SDS011;2301;47.354;8.528;2023-04-07T00:14:06;4.73;;;2.60;;
4577;SDS011;2301;47.354;8.528;2023-04-07T00:16:33;5.37;;;2.60;;
4577;SDS011;2301;47.354;8.528;2023-04-07T00:19:01;4.67;;;2.87;;
4577;SDS011;2301;47.354;8.528;2023-04-07T00:21:27;5.70;;;2.27;;
4577;SDS011;2301;47.354;8.528;2023-04-07T00:23:56;3.60;;;2.30;;
4577;SDS011;2301;47.354;8.528;2023-04-07T00:26:23;3.40;;;2.40;;
4577;SDS011;2301;47.354;8.528;2023-04-07T00:28:53;3.90;;;2.87;;
4577;SDS011;2301;47.354;8.528;2023-04-07T00:31:19;6.33;;;2.83;;
4577;SDS011;2301;47.354;8.528;2023-04-07T00:33:46;3.60;;;2.50;;
4577;SDS011;2301;47.354;8.528;2023-04-07T00:36:13;5.30;;;2.77;;
4577;SDS011;2301;47.354;8.528;2023-04-07T00:38:40;3.67;;;2.50;;
4577;SDS011;2301;47.354;8.528;2023-04-07T00:41:09;3.87;;;2.17;;
4577;SDS011;2301;47.354;8.528;2023-04-07T00:43:35;2.70;;;2.40;;
4577;SDS011;2301;47.354;8.528;2023-04-07T00:46:02;6.03;;;3.33;;
4577;SDS011;2301;47.354;8.528;2023-04-07T00:48:30;3.50;;;2.40;;
4577;SDS011;2301;47.354;8.528;2023-04-07T00:50:56;3.53;;;2.47;;
4577;SDS011;2301;47.354;8.528;2023-04-07T00:53:23;3.55;;;2.50;;
4577;SDS011;2301;47.354;8.528;2023-04-07T00:55:50;3.70;;;2.45;;
4577;SDS011;2301;47.354;8.528;2023-04-07T00:58:19;3.47;;;2.33;;
4577;SDS011;2301;47.354;8.528;2023-04-07T01:00:47;5.23;;;2.43;;
4577;SDS011;2301;47.354;8.528;2023-04-07T01:03:17;2.80;;;1.90;;
4577;SDS011;2301;47.354;8.528;2023-04-07T01:05:49;3.58;;;2.50;;
4577;SDS011;2301;47.354;8.528;2023-04-07T01:08:23;3.80;;;2.47;;
4577;SDS011;2301;47.354;8.528;2023-04-07T01:10:56;3.90;;;2.57;;
4577;SDS011;2301;47.354;8.528;2023-04-07T01:13:33;3.60;;;2.40;;
4577;SDS011;2301;47.354;8.528;2023-04-07T01:16:04;4.07;;;2.50;;
4577;SDS011;2301;47.354;8.528;2023-04-07T01:18:35;3.70;;;2.60;;
4577;SDS011;2301;47.354;8.528;2023-04-07T01:21:05;3.70;;;2.30;;
4577;SDS011;2301;47.354;8.528;2023-04-07T01:23:38;4.77;;;2.40;;
4577;SDS011;2301;47.354;8.528;2023-04-07T01:26:17;4.80;;;2.57;;
4577;SDS011;2301;47.354;8.528;2023-04-07T01:28:56;4.50;;;2.80;;
4577;SDS011;2301;47.354;8.528;2023-04-07T01:31:51;3.63;;;2.33;;
4577;SDS011;2301;47.354;8.528;2023-04-07T01:34:21;2.83;;;2.27;;
4577;SDS011;2301;47.354;8.528;2023-04-07T01:36:51;4.27;;;2.17;;
4577;SDS011;2301;47.354;8.528;2023-04-07T01:39:20;4.57;;;2.40;;
4577;SDS011;2301;47.354;8.528;2023-04-07T01:41:47;3.75;;;2.20;;
4577;SDS011;2301;47.354;8.528;2023-04-07T01:44:17;4.32;;;2.53;;
4577;SDS011;2301;47.354;8.528;2023-04-07T01:46:46;4.93;;;2.63;;
4577;SDS011;2301;47.354;8.528;2023-04-07T01:49:15;3.93;;;2.40;;
4577;SDS011;2301;47.354;8.528;2023-04-07T01:51:42;3.13;;;2.30;;
4577;SDS011;2301;47.354;8.528;2023-04-07T01:54:14;5.93;;;2.37;;
4577;SDS011;2301;47.354;8.528;2023-04-07T01:56:41;4.77;;;2.10;;
4577;SDS011;2301;47.354;8.528;2023-04-07T01:59:08;3.85;;;2.40;;
4577;SDS011;2301;47.354;8.528;2023-04-07T02:01:35;3.00;;;2.40;;
4577;SDS011;2301;47.354;8.528;2023-04-07T02:04:06;6.00;;;2.50;;
4577;SDS011;2301;47.354;8.528;2023-04-07T02:06:42;3.90;;;2.97;;
4577;SDS011;2301;47.354;8.528;2023-04-07T02:09:14;5.53;;;2.87;;
4577;SDS011;2301;47.354;8.528;2023-04-07T02:11:42;3.47;;;2.50;;
4577;SDS011;2301;47.354;8.528;2023-04-07T02:14:10;5.33;;;2.13;;
4577;SDS011;2301;47.354;8.528;2023-04-07T02:16:39;3.40;;;2.40;;
4577;SDS011;2301;47.354;8.528;2023-04-07T02:19:09;3.37;;;2.20;;
4577;SDS011;2301;47.354;8.528;2023-04-07T02:21:36;4.37;;;2.10;;
4577;SDS011;2301;47.354;8.528;2023-04-07T02:24:06;4.60;;;2.70;;
4577;SDS011;2301;47.354;8.528;2023-04-07T02:26:33;4.40;;;3.10;;
4577;SDS011;2301;47.354;8.528;2023-04-07T02:29:01;3.58;;;2.60;;
4577;SDS011;2301;47.354;8.528;2023-04-07T02:31:28;4.15;;;2.58;;
4577;SDS011;2301;47.354;8.528;2023-04-07T02:33:55;4.25;;;2.90;;
4577;SDS011;2301;47.354;8.528;2023-04-07T02:36:23;4.22;;;2.55;;
4577;SDS011;2301;47.354;8.528;2023-04-07T02:38:51;4.75;;;2.75;;
4577;SDS011;2301;47.354;8.528;2023-04-07T02:41:18;4.00;;;2.70;;
4577;SDS011;2301;47.354;8.528;2023-04-07T02:43:45;5.15;;;3.15;;
4577;SDS011;2301;47.354;8.528;2023-04-07T02:46:12;7.57;;;2.90;;
4577;SDS011;2301;47.354;8.528;2023-04-07T02:48:39;5.47;;;2.85;;
4577;SDS011;2301;47.354;8.528;2023-04-07T02:51:06;4.00;;;2.90;;
4577;SDS011;2301;47.354;8.528;2023-04-07T02:53:35;5.38;;;3.25;;
4577;SDS011;2301;47.354;8.528;2023-04-07T02:56:02;5.15;;;3.03;;
4577;SDS011;2301;47.354;8.528;2023-04-07T02:58:29;4.65;;;3.15;;
4577;SDS011;2301;47.354;8.528;2023-04-07T03:00:56;3.08;;;2.50;;
4577;SDS011;2301;47.354;8.528;2023-04-07T03:03:23;8.30;;;3.70;;
4577;SDS011;2301;47.354;8.528;2023-04-07T03:05:50;4.28;;;2.95;;
4577;SDS011;2301;47.354;8.528;2023-04-07T03:08:17;6.50;;;2.90;;
4577;SDS011;2301;47.354;8.528;2023-04-07T03:10:45;5.43;;;3.40;;
4577;SDS011;2301;47.354;8.528;2023-04-07T03:13:12;7.63;;;3.00;;
4577;SDS011;2301;47.354;8.528;2023-04-07T03:15:40;4.22;;;3.20;;
4577;SDS011;2301;47.354;8.528;2023-04-07T03:18:08;4.55;;;2.67;;
4577;SDS011;2301;47.354;8.528;2023-04-07T03:20:35;4.53;;;3.00;;
4577;SDS011;2301;47.354;8.528;2023-04-07T03:23:02;3.78;;;2.50;;
4577;SDS011;2301;47.354;8.528;2023-04-07T03:25:30;4.75;;;2.92;;
4577;SDS011;2301;47.354;8.528;2023-04-07T03:27:58;5.15;;;3.10;;
4577;SDS011;2301;47.354;8.528;2023-04-07T03:30:25;5.75;;;3.10;;
4577;SDS011;2301;47.354;8.528;2023-04-07T03:32:52;4.35;;;2.90;;
4577;SDS011;2301;47.354;8.528;2023-04-07T03:35:19;4.88;;;3.30;;
4577;SDS011;2301;47.354;8.528;2023-04-07T03:37:46;5.32;;;3.10;;
4577;SDS011;2301;47.354;8.528;2023-04-07T03:40:13;5.35;;;3.15;;
4577;SDS011;2301;47.354;8.528;2023-04-07T03:42:40;5.30;;;2.90;;
4577;SDS011;2301;47.354;8.528;2023-04-07T03:45:10;5.20;;;3.40;;
4577;SDS011;2301;47.354;8.528;2023-04-07T03:47:37;5.38;;;3.60;;
4577;SDS011;2301;47.354;8.528;2023-04-07T03:50:05;4.88;;;3.20;;
4577;SDS011;2301;47.354;8.528;2023-04-07T03:52:32;7.20;;;3.60;;
4577;SDS011;2301;47.354;8.528;2023-04-07T03:55:00;4.35;;;2.55;;
4577;SDS011;2301;47.354;8.528;2023-04-07T03:57:27;3.78;;;2.80;;
4577;SDS011;2301;47.354;8.528;2023-04-07T03:59:54;5.03;;;2.90;;
4577;SDS011;2301;47.354;8.528;2023-04-07T04:02:22;4.10;;;2.90;;
4577;SDS011;2301;47.354;8.528;2023-04-07T04:04:49;6.13;;;3.55;;
4577;SDS011;2301;47.354;8.528;2023-04-07T04:07:16;3.95;;;3.03;;
4577;SDS011;2301;47.354;8.528;2023-04-07T04:09:43;5.05;;;2.95;;
4577;SDS011;2301;47.354;8.528;2023-04-07T04:12:10;6.40;;;3.53;;
4577;SDS011;2301;47.354;8.528;2023-04-07T04:14:37;3.55;;;2.60;;
4577;SDS011;2301;47.354;8.528;2023-04-07T04:17:04;8.35;;;3.22;;
4577;SDS011;2301;47.354;8.528;2023-04-07T04:19:33;5.30;;;3.20;;
4577;SDS011;2301;47.354;8.528;2023-04-07T04:22:00;5.75;;;2.85;;
4577;SDS011;2301;47.354;8.528;2023-04-07T04:24:27;4.75;;;3.25;;
4577;SDS011;2301;47.354;8.528;2023-04-07T04:26:54;4.60;;;2.75;;
4577;SDS011;2301;47.354;8.528;2023-04-07T04:29:22;4.70;;;2.80;;
4577;SDS011;2301;47.354;8.528;2023-04-07T04:31:48;3.85;;;3.10;;
4577;SDS011;2301;47.354;8.528;2023-04-07T04:34:15;4.88;;;2.65;;
4577;SDS011;2301;47.354;8.528;2023-04-07T04:36:44;7.95;;;3.28;;
4577;SDS011;2301;47.354;8.528;2023-04-07T04:39:13;5.50;;;3.28;;
4577;SDS011;2301;47.354;8.528;2023-04-07T04:41:40;4.00;;;2.92;;
4577;SDS011;2301;47.354;8.528;2023-04-07T04:44:07;3.58;;;2.55;;
4577;SDS011;2301;47.354;8.528;2023-04-07T04:46:34;5.28;;;3.30;;
4577;SDS011;2301;47.354;8.528;2023-04-07T04:49:01;4.20;;;2.92;;
4577;SDS011;2301;47.354;8.528;2023-04-07T04:51:29;4.07;;;2.60;;
4577;SDS011;2301;47.354;8.528;2023-04-07T04:53:57;3.90;;;2.80;;
4577;SDS011;2301;47.354;8.528;2023-04-07T04:56:24;4.07;;;2.75;;
4577;SDS011;2301;47.354;8.528;2023-04-07T04:58:51;4.00;;;3.00;;
4577;SDS011;2301;47.354;8.528;2023-04-07T05:01:18;4.70;;;3.45;;
4577;SDS011;2301;47.354;8.528;2023-04-07T05:03:45;3.65;;;2.85;;
4577;SDS011;2301;47.354;8.528;2023-04-07T05:06:12;3.45;;;2.80;;
4577;SDS011;2301;47.354;8.528;2023-04-07T05:08:39;3.83;;;3.08;;
4577;SDS011;2301;47.354;8.528;2023-04-07T05:11:08;4.88;;;3.08;;
4577;SDS011;2301;47.354;8.528;2023-04-07T05:13:35;3.88;;;2.65;;
4577;SDS011;2301;47.354;8.528;2023-04-07T05:16:02;3.80;;;2.90;;
4577;SDS011;2301;47.354;8.528;2023-04-07T05:18:31;6.15;;;3.20;;
4577;SDS011;2301;47.354;8.528;2023-04-07T05:20:58;4.20;;;3.00;;
4577;SDS011;2301;47.354;8.528;2023-04-07T05:23:26;4.88;;;3.10;;
4577;SDS011;2301;47.354;8.528;2023-04-07T05:25:53;8.57;;;2.85;;
4577;SDS011;2301;47.354;8.528;2023-04-07T05:28:22;6.15;;;3.25;;
4577;SDS011;2301;47.354;8.528;2023-04-07T05:30:49;3.95;;;2.80;;
4577;SDS011;2301;47.354;8.528;2023-04-07T05:33:16;4.03;;;3.03;;
4577;SDS011;2301;47.354;8.528;2023-04-07T05:35:43;4.88;;;3.35;;
4577;SDS011;2301;47.354;8.528;2023-04-07T05:38:11;5.60;;;3.28;;
4577;SDS011;2301;47.354;8.528;2023-04-07T05:40:38;8.35;;;3.55;;
4577;SDS011;2301;47.354;8.528;2023-04-07T05:43:06;4.10;;;3.00;;
4577;SDS011;2301;47.354;8.528;2023-04-07T05:45:35;4.40;;;3.28;;
4577;SDS011;2301;47.354;8.528;2023-04-07T05:48:05;3.97;;;2.85;;
4577;SDS011;2301;47.354;8.528;2023-04-07T05:50:34;5.65;;;3.20;;
4577;SDS011;2301;47.354;8.528;2023-04-07T05:53:01;9.98;;;3.70;;
4577;SDS011;2301;47.354;8.528;2023-04-07T05:55:28;4.43;;;2.80;;
4577;SDS011;2301;47.354;8.528;2023-04-07T05:57:56;4.20;;;2.78;;
4577;SDS011;2301;47.354;8.528;2023-04-07T06:00:27;5.88;;;3.47;;
4577;SDS011;2301;47.354;8.528;2023-04-07T06:02:59;5.10;;;3.08;;
4577;SDS011;2301;47.354;8.528;2023-04-07T06:05:29;6.60;;;3.45;;
4577;SDS011;2301;47.354;8.528;2023-04-07T06:07:58;4.20;;;3.00;;
4577;SDS011;2301;47.354;8.528;2023-04-07T06:10:29;5.03;;;3.28;;
4577;SDS011;2301;47.354;8.528;2023-04-07T06:12:59;4.97;;;2.80;;
4577;SDS011;2301;47.354;8.528;2023-04-07T06:15:28;5.45;;;3.13;;
4577;SDS011;2301;47.354;8.528;2023-04-07T06:17:55;6.18;;;3.00;;
4577;SDS011;2301;47.354;8.528;2023-04-07T06:20:23;5.53;;;2.88;;
4577;SDS011;2301;47.354;8.528;2023-04-07T06:22:51;4.57;;;3.00;;
4577;SDS011;2301;47.354;8.528;2023-04-07T06:25:18;4.13;;;2.90;;
4577;SDS011;2301;47.354;8.528;2023-04-07T06:27:45;7.35;;;3.60;;
4577;SDS011;2301;47.354;8.528;2023-04-07T06:30:13;3.60;;;2.60;;
4577;SDS011;2301;47.354;8.528;2023-04-07T06:32:40;4.57;;;3.20;;
4577;SDS011;2301;47.354;8.528;2023-04-07T06:35:08;4.45;;;2.70;;
4577;SDS011;2301;47.354;8.528;2023-04-07T06:37:36;3.92;;;2.80;;
4577;SDS011;2301;47.354;8.528;2023-04-07T06:40:05;6.05;;;3.25;;
4577;SDS011;2301;47.354;8.528;2023-04-07T06:42:32;5.30;;;3.50;;
4577;SDS011;2301;47.354;8.528;2023-04-07T06:45:00;4.32;;;3.13;;
4577;SDS011;2301;47.354;8.528;2023-04-07T06:47:27;4.88;;;3.13;;
4577;SDS011;2301;47.354;8.528;2023-04-07T06:49:54;4.22;;;3.10;;
4577;SDS011;2301;47.354;8.528;2023-04-07T06:52:22;5.07;;;3.22;;
4577;SDS011;2301;47.354;8.528;2023-04-07T06:54:50;3.92;;;2.78;;
4577;SDS011;2301;47.354;8.528;2023-04-07T06:57:17;5.40;;;3.20;;
4577;SDS011;2301;47.354;8.528;2023-04-07T06:59:44;6.53;;;3.53;;
4577;SDS011;2301;47.354;8.528;2023-04-07T07:02:11;5.25;;;3.67;;
4577;SDS011;2301;47.354;8.528;2023-04-07T07:04:38;3.90;;;3.22;;
4577;SDS011;2301;47.354;8.528;2023-04-07T07:07:05;6.32;;;3.55;;
4577;SDS011;2301;47.354;8.528;2023-04-07T07:09:33;6.60;;;3.35;;
4577;SDS011;2301;47.354;8.528;2023-04-07T07:12:01;6.35;;;3.20;;
4577;SDS011;2301;47.354;8.528;2023-04-07T07:14:30;6.05;;;3.33;;
4577;SDS011;2301;47.354;8.528;2023-04-07T07:16:57;3.80;;;2.70;;
4577;SDS011;2301;47.354;8.528;2023-04-07T07:19:24;7.35;;;3.72;;
4577;SDS011;2301;47.354;8.528;2023-04-07T07:21:51;4.78;;;2.80;;
4577;SDS011;2301;47.354;8.528;2023-04-07T07:24:21;6.18;;;3.53;;
4577;SDS011;2301;47.354;8.528;2023-04-07T07:26:51;3.38;;;2.70;;
4577;SDS011;2301;47.354;8.528;2023-04-07T07:29:24;5.25;;;3.40;;
4577;SDS011;2301;47.354;8.528;2023-04-07T07:31:53;5.15;;;3.72;;
4577;SDS011;2301;47.354;8.528;2023-04-07T07:34:24;6.15;;;2.78;;
4577;SDS011;2301;47.354;8.528;2023-04-07T07:36:54;3.97;;;2.85;;
4577;SDS011;2301;47.354;8.528;2023-04-07T07:39:24;4.35;;;3.30;;
4577;SDS011;2301;47.354;8.528;2023-04-07T07:41:51;4.07;;;2.95;;
4577;SDS011;2301;47.354;8.528;2023-04-07T07:44:19;5.38;;;3.78;;
4577;SDS011;2301;47.354;8.528;2023-04-07T07:46:48;4.78;;;3.15;;
4577;SDS011;2301;47.354;8.528;2023-04-07T07:49:15;7.35;;;3.50;;
4577;SDS011;2301;47.354;8.528;2023-04-07T07:51:43;3.85;;;3.08;;
4577;SDS011;2301;47.354;8.528;2023-04-07T07:54:11;5.88;;;3.30;;
4577;SDS011;2301;47.354;8.528;2023-04-07T07:56:38;7.00;;;4.10;;
4577;SDS011;2301;47.354;8.528;2023-04-07T07:59:05;5.05;;;3.20;;
4577;SDS011;2301;47.354;8.528;2023-04-07T08:01:33;5.35;;;3.30;;
4577;SDS011;2301;47.354;8.528;2023-04-07T08:04:01;5.47;;;3.35;;
4577;SDS011;2301;47.354;8.528;2023-04-07T08:06:29;5.65;;;3.65;;
4577;SDS011;2301;47.354;8.528;2023-04-07T08:08:56;7.50;;;3.85;;
4577;SDS011;2301;47.354;8.528;2023-04-07T08:11:24;7.53;;;4.10;;
4577;SDS011;2301;47.354;8.528;2023-04-07T08:13:51;6.38;;;3.50;;
4577;SDS011;2301;47.354;8.528;2023-04-07T08:16:18;6.47;;;3.60;;
4577;SDS011;2301;47.354;8.528;2023-04-07T08:18:46;4.13;;;3.17;;
4577;SDS011;2301;47.354;8.528;2023-04-07T08:21:14;5.43;;;3.45;;
4577;SDS011;2301;47.354;8.528;2023-04-07T08:23:41;6.00;;;3.70;;
4577;SDS011;2301;47.354;8.528;2023-04-07T08:26:08;8.05;;;3.92;;
4577;SDS011;2301;47.354;8.528;2023-04-07T08:28:35;5.63;;;3.42;;
4577;SDS011;2301;47.354;8.528;2023-04-07T08:31:03;4.65;;;2.80;;
4577;SDS011;2301;47.354;8.528;2023-04-07T08:33:30;5.60;;;3.85;;
4577;SDS011;2301;47.354;8.528;2023-04-07T08:35:57;4.85;;;3.28;;
4577;SDS011;2301;47.354;8.528;2023-04-07T08:38:26;6.95;;;3.55;;
4577;SDS011;2301;47.354;8.528;2023-04-07T08:40:53;6.82;;;3.30;;
4577;SDS011;2301;47.354;8.528;2023-04-07T08:43:29;5.03;;;3.35;;
4577;SDS011;2301;47.354;8.528;2023-04-07T08:45:56;3.65;;;2.83;;
4577;SDS011;2301;47.354;8.528;2023-04-07T08:48:23;4.55;;;2.90;;
4577;SDS011;2301;47.354;8.528;2023-04-07T08:50:54;3.33;;;2.63;;
4577;SDS011;2301;47.354;8.528;2023-04-07T08:53:23;4.47;;;2.78;;
4577;SDS011;2301;47.354;8.528;2023-04-07T08:55:55;3.85;;;2.78;;
4577;SDS011;2301;47.354;8.528;2023-04-07T08:58:23;4.97;;;2.92;;
4577;SDS011;2301;47.354;8.528;2023-04-07T09:00:50;5.00;;;2.90;;
4577;SDS011;2301;47.354;8.528;2023-04-07T09:03:17;4.10;;;2.90;;
4577;SDS011;2301;47.354;8.528;2023-04-07T09:05:46;4.68;;;3.28;;
4577;SDS011;2301;47.354;8.528;2023-04-07T09:08:15;4.75;;;3.35;;
4577;SDS011;2301;47.354;8.528;2023-04-07T09:10:43;4.88;;;2.90;;
4577;SDS011;2301;47.354;8.528;2023-04-07T09:13:10;5.72;;;2.92;;
4577;SDS011;2301;47.354;8.528;2023-04-07T09:15:38;5.07;;;3.50;;
4577;SDS011;2301;47.354;8.528;2023-04-07T09:18:06;5.00;;;2.60;;
4577;SDS011;2301;47.354;8.528;2023-04-07T09:23:29;3.22;;;2.70;;
4577;SDS011;2301;47.354;8.528;2023-04-07T09:25:59;5.75;;;3.00;;
4577;SDS011;2301;47.354;8.528;2023-04-07T09:28:43;8.75;;;3.25;;
4577;SDS011;2301;47.354;8.528;2023-04-07T09:31:12;3.53;;;2.60;;
4577;SDS011;2301;47.354;8.528;2023-04-07T09:33:40;4.15;;;2.55;;
4577;SDS011;2301;47.354;8.528;2023-04-07T09:36:09;3.65;;;2.25;;
4577;SDS011;2301;47.354;8.528;2023-04-07T09:38:39;6.13;;;3.05;;
4577;SDS011;2301;47.354;8.528;2023-04-07T09:41:13;3.30;;;2.42;;
4577;SDS011;2301;47.354;8.528;2023-04-07T09:43:43;6.07;;;2.65;;
4577;SDS011;2301;47.354;8.528;2023-04-07T09:46:12;4.93;;;2.60;;
4577;SDS011;2301;47.354;8.528;2023-04-07T09:48:40;3.97;;;2.42;;
4577;SDS011;2301;47.354;8.528;2023-04-07T09:51:09;3.20;;;2.30;;
4577;SDS011;2301;47.354;8.528;2023-04-07T09:53:44;4.75;;;2.70;;
4577;SDS011;2301;47.354;8.528;2023-04-07T09:56:14;3.05;;;2.50;;
4577;SDS011;2301;47.354;8.528;2023-04-07T09:58:45;3.33;;;2.30;;
4577;SDS011;2301;47.354;8.528;2023-04-07T10:01:13;4.43;;;2.53;;
4577;SDS011;2301;47.354;8.528;2023-04-07T10:03:44;5.45;;;2.50;;
4577;SDS011;2301;47.354;8.528;2023-04-07T10:06:14;3.70;;;2.30;;
4577;SDS011;2301;47.354;8.528;2023-04-07T10:08:42;4.20;;;2.40;;
4577;SDS011;2301;47.354;8.528;2023-04-07T10:11:09;2.70;;;2.03;;
4577;SDS011;2301;47.354;8.528;2023-04-07T10:13:38;3.85;;;2.70;;
4577;SDS011;2301;47.354;8.528;2023-04-07T10:16:06;3.15;;;2.33;;
4577;SDS011;2301;47.354;8.528;2023-04-07T10:18:34;3.00;;;2.17;;
4577;SDS011;2301;47.354;8.528;2023-04-07T10:21:02;3.65;;;2.20;;
4577;SDS011;2301;47.354;8.528;2023-04-07T10:23:35;3.35;;;2.30;;
4577;SDS011;2301;47.354;8.528;2023-04-07T10:26:09;3.28;;;2.50;;
4577;SDS011;2301;47.354;8.528;2023-04-07T10:28:39;3.15;;;2.50;;
4577;SDS011;2301;47.354;8.528;2023-04-07T10:31:10;3.58;;;2.10;;
4577;SDS011;2301;47.354;8.528;2023-04-07T10:33:45;2.92;;;2.10;;
4577;SDS011;2301;47.354;8.528;2023-04-07T10:36:14;3.00;;;2.17;;
4577;SDS011;2301;47.354;8.528;2023-04-07T10:41:46;4.68;;;2.53;;
4577;SDS011;2301;47.354;8.528;2023-04-07T10:47:20;3.17;;;2.40;;
4577;SDS011;2301;47.354;8.528;2023-04-07T10:52:46;3.53;;;2.33;;
4577;SDS011;2301;47.354;8.528;2023-04-07T10:55:35;4.00;;;2.65;;
4577;SDS011;2301;47.354;8.528;2023-04-07T10:58:14;4.07;;;2.70;;
4577;SDS011;2301;47.354;8.528;2023-04-07T11:03:56;3.50;;;2.50;;
4577;SDS011;2301;47.354;8.528;2023-04-07T11:06:25;3.22;;;2.20;;
4577;SDS011;2301;47.354;8.528;2023-04-07T11:08:52;5.03;;;2.60;;
4577;SDS011;2301;47.354;8.528;2023-04-07T11:11:33;3.50;;;2.35;;
4577;SDS011;2301;47.354;8.528;2023-04-07T11:14:03;4.03;;;2.38;;
4577;SDS011;2301;47.354;8.528;2023-04-07T11:16:38;4.85;;;2.28;;
4577;SDS011;2301;47.354;8.528;2023-04-07T11:19:06;3.45;;;2.45;;
4577;SDS011;2301;47.354;8.528;2023-04-07T11:21:33;3.03;;;2.20;;
4577;SDS011;2301;47.354;8.528;2023-04-07T11:24:01;3.85;;;2.30;;
4577;SDS011;2301;47.354;8.528;2023-04-07T11:26:28;2.80;;;2.00;;
4577;SDS011;2301;47.354;8.528;2023-04-07T11:29:02;6.18;;;2.90;;
4577;SDS011;2301;47.354;8.528;2023-04-07T11:31:30;4.47;;;2.63;;
4577;SDS011;2301;47.354;8.528;2023-04-07T11:33:59;4.07;;;2.60;;
4577;SDS011;2301;47.354;8.528;2023-04-07T11:36:29;2.85;;;2.08;;
4577;SDS011;2301;47.354;8.528;2023-04-07T11:38:57;2.70;;;2.35;;
4577;SDS011;2301;47.354;8.528;2023-04-07T11:41:26;4.15;;;2.42;;
4577;SDS011;2301;47.354;8.528;2023-04-07T11:44:03;3.63;;;2.20;;
4577;SDS011;2301;47.354;8.528;2023-04-07T11:46:31;3.50;;;2.20;;
4577;SDS011;2301;47.354;8.528;2023-04-07T11:49:08;2.50;;;2.15;;
4577;SDS011;2301;47.354;8.528;2023-04-07T11:51:37;3.55;;;2.50;;
4577;SDS011;2301;47.354;8.528;2023-04-07T11:54:04;2.45;;;1.85;;
4577;SDS011;2301;47.354;8.528;2023-04-07T11:56:40;2.78;;;2.33;;
4577;SDS011;2301;47.354;8.528;2023-04-07T11:59:08;2.35;;;1.90;;
4577;SDS011;2301;47.354;8.528;2023-04-07T12:01:45;2.55;;;1.92;;
4577;SDS011;2301;47.354;8.528;2023-04-07T12:04:13;2.60;;;1.98;;
4577;SDS011;2301;47.354;8.528;2023-04-07T12:06:41;3.03;;;2.13;;
4577;SDS011;2301;47.354;8.528;2023-04-07T12:09:23;2.53;;;1.98;;
4577;SDS011;2301;47.354;8.528;2023-04-07T12:11:51;2.10;;;1.63;;
4577;SDS011;2301;47.354;8.528;2023-04-07T12:14:19;2.63;;;1.92;;
4577;SDS011;2301;47.354;8.528;2023-04-07T12:16:45;2.28;;;1.80;;
4577;SDS011;2301;47.354;8.528;2023-04-07T12:19:14;2.45;;;1.85;;
4577;SDS011;2301;47.354;8.528;2023-04-07T12:21:41;1.90;;;1.58;;
4577;SDS011;2301;47.354;8.528;2023-04-07T12:24:08;2.58;;;1.73;;
4577;SDS011;2301;47.354;8.528;2023-04-07T12:26:35;2.20;;;1.45;;
4577;SDS011;2301;47.354;8.528;2023-04-07T12:29:02;1.60;;;1.30;;
4577;SDS011;2301;47.354;8.528;2023-04-07T12:31:30;2.85;;;1.42;;
4577;SDS011;2301;47.354;8.528;2023-04-07T12:33:57;2.00;;;1.40;;
4577;SDS011;2301;47.354;8.528;2023-04-07T12:36:26;1.98;;;1.40;;
4577;SDS011;2301;47.354;8.528;2023-04-07T12:38:53;2.47;;;1.40;;
4577;SDS011;2301;47.354;8.528;2023-04-07T12:41:21;2.35;;;1.30;;
4577;SDS011;2301;47.354;8.528;2023-04-07T12:43:48;1.77;;;1.30;;
4577;SDS011;2301;47.354;8.528;2023-04-07T12:46:15;1.50;;;1.30;;
4577;SDS011;2301;47.354;8.528;2023-04-07T12:48:42;2.00;;;1.30;;
4577;SDS011;2301;47.354;8.528;2023-04-07T12:51:09;1.92;;;1.30;;
4577;SDS011;2301;47.354;8.528;2023-04-07T12:53:38;1.50;;;1.10;;
4577;SDS011;2301;47.354;8.528;2023-04-07T12:56:05;2.45;;;1.30;;
4577;SDS011;2301;47.354;8.528;2023-04-07T12:58:32;1.50;;;1.20;;
4577;SDS011;2301;47.354;8.528;2023-04-07T13:00:59;1.73;;;1.25;;
4577;SDS011;2301;47.354;8.528;2023-04-07T13:03:26;2.33;;;1.10;;
4577;SDS011;2301;47.354;8.528;2023-04-07T13:05:54;1.70;;;1.33;;
4577;SDS011;2301;47.354;8.528;2023-04-07T13:08:25;2.00;;;1.40;;
4577;SDS011;2301;47.354;8.528;2023-04-07T13:10:54;1.33;;;1.00;;
4577;SDS011;2301;47.354;8.528;2023-04-07T13:13:21;1.92;;;1.20;;
4577;SDS011;2301;47.354;8.528;2023-04-07T13:15:48;1.60;;;1.15;;
4577;SDS011;2301;47.354;8.528;2023-04-07T13:18:15;2.08;;;1.10;;
4577;SDS011;2301;47.354;8.528;2023-04-07T13:20:42;1.45;;;1.10;;
4577;SDS011;2301;47.354;8.528;2023-04-07T13:23:09;1.70;;;1.20;;
4577;SDS011;2301;47.354;8.528;2023-04-07T13:25:36;1.58;;;1.00;;
4577;SDS011;2301;47.354;8.528;2023-04-07T13:28:05;1.60;;;1.20;;
4577;SDS011;2301;47.354;8.528;2023-04-07T13:30:32;1.65;;;1.02;;
4577;SDS011;2301;47.354;8.528;2023-04-07T13:32:59;1.40;;;1.05;;
4577;SDS011;2301;47.354;8.528;2023-04-07T13:35:26;1.40;;;0.90;;
4577;SDS011;2301;47.354;8.528;2023-04-07T13:37:54;1.35;;;0.90;;
4577;SDS011;2301;47.354;8.528;2023-04-07T13:40:21;1.45;;;0.90;;
4577;SDS011;2301;47.354;8.528;2023-04-07T13:42:48;1.38;;;1.00;;
4577;SDS011;2301;47.354;8.528;2023-04-07T13:45:16;1.58;;;1.00;;
4577;SDS011;2301;47.354;8.528;2023-04-07T13:47:43;1.60;;;1.10;;
4577;SDS011;2301;47.354;8.528;2023-04-07T13:50:11;1.60;;;1.20;;
4577;SDS011;2301;47.354;8.528;2023-04-07T13:52:38;2.83;;;1.25;;
4577;SDS011;2301;47.354;8.528;2023-04-07T13:55:05;5.22;;;1.30;;
4577;SDS011;2301;47.354;8.528;2023-04-07T13:57:33;1.88;;;1.27;;
4577;SDS011;2301;47.354;8.528;2023-04-07T14:00:00;1.50;;;1.20;;
4577;SDS011;2301;47.354;8.528;2023-04-07T14:02:29;1.25;;;0.95;;
4577;SDS011;2301;47.354;8.528;2023-04-07T14:04:56;1.30;;;1.00;;
4577;SDS011;2301;47.354;8.528;2023-04-07T14:07:23;1.40;;;1.10;;
4577;SDS011;2301;47.354;8.528;2023-04-07T14:09:50;1.10;;;0.80;;
4577;SDS011;2301;47.354;8.528;2023-04-07T14:12:18;1.40;;;1.05;;
4577;SDS011;2301;47.354;8.528;2023-04-07T14:14:46;1.40;;;1.15;;
4577;SDS011;2301;47.354;8.528;2023-04-07T14:17:16;3.75;;;1.10;;
4577;SDS011;2301;47.354;8.528;2023-04-07T14:19:44;1.60;;;1.00;;
4577;SDS011;2301;47.354;8.528;2023-04-07T14:22:12;1.30;;;1.00;;
4577;SDS011;2301;47.354;8.528;2023-04-07T14:24:39;1.75;;;1.10;;
4577;SDS011;2301;47.354;8.528;2023-04-07T14:27:06;1.65;;;1.10;;
4577;SDS011;2301;47.354;8.528;2023-04-07T14:29:33;1.45;;;1.05;;
4577;SDS011;2301;47.354;8.528;2023-04-07T14:32:00;1.40;;;1.15;;
4577;SDS011;2301;47.354;8.528;2023-04-07T14:34:27;1.73;;;1.27;;
4577;SDS011;2301;47.354;8.528;2023-04-07T14:36:56;1.20;;;0.98;;
4577;SDS011;2301;47.354;8.528;2023-04-07T14:39:23;1.95;;;1.20;;
4577;SDS011;2301;47.354;8.528;2023-04-07T14:41:51;1.55;;;1.20;;
4577;SDS011;2301;47.354;8.528;2023-04-07T14:44:18;1.65;;;1.10;;
4577;SDS011;2301;47.354;8.528;2023-04-07T14:46:46;1.35;;;1.10;;
4577;SDS011;2301;47.354;8.528;2023-04-07T14:49:13;1.10;;;0.90;;
4577;SDS011;2301;47.354;8.528;2023-04-07T14:51:40;1.60;;;1.10;;
4577;SDS011;2301;47.354;8.528;2023-04-07T14:54:10;1.48;;;1.08;;
4577;SDS011;2301;47.354;8.528;2023-04-07T14:56:36;1.60;;;1.05;;
4577;SDS011;2301;47.354;8.528;2023-04-07T14:59:04;2.17;;;1.08;;
4577;SDS011;2301;47.354;8.528;2023-04-07T15:01:30;1.60;;;1.00;;
4577;SDS011;2301;47.354;8.528;2023-04-07T15:03:57;1.40;;;1.10;;
4577;SDS011;2301;47.354;8.528;2023-04-07T15:06:25;1.77;;;1.02;;
4577;SDS011;2301;47.354;8.528;2023-04-07T15:08:52;1.45;;;1.17;;
4577;SDS011;2301;47.354;8.528;2023-04-07T15:11:21;1.40;;;1.10;;
4577;SDS011;2301;47.354;8.528;2023-04-07T15:13:48;1.80;;;1.30;;
4577;SDS011;2301;47.354;8.528;2023-04-07T15:16:15;1.85;;;1.10;;
4577;SDS011;2301;47.354;8.528;2023-04-07T15:18:43;1.70;;;1.27;;
4577;SDS011;2301;47.354;8.528;2023-04-07T15:21:11;1.58;;;1.30;;
4577;SDS011;2301;47.354;8.528;2023-04-07T15:23:39;1.70;;;1.30;;
4577;SDS011;2301;47.354;8.528;2023-04-07T15:26:07;1.77;;;1.20;;
4577;SDS011;2301;47.354;8.528;2023-04-07T15:28:36;2.03;;;1.30;;
4577;SDS011;2301;47.354;8.528;2023-04-07T15:31:03;1.50;;;1.20;;
4577;SDS011;2301;47.354;8.528;2023-04-07T15:33:34;2.30;;;1.60;;
4577;SDS011;2301;47.354;8.528;2023-04-07T15:36:01;1.90;;;1.45;;
4577;SDS011;2301;47.354;8.528;2023-04-07T15:38:28;1.63;;;1.23;;